createdAt,value
2022-09-15T00:00:38.305Z,98.00
2022-09-15T00:03:07.461Z,152.98
2022-09-15T00:05:35.202Z,48.30
2022-09-15T00:08:03.040Z,55.22
2022-09-15T00:10:30.720Z,260.98
2022-09-15T00:12:58.372Z,203.18
2022-09-15T00:15:26.095Z,111.93
2022-09-15T00:17:54.000Z,258.90
2022-09-15T00:20:23.085Z,206.15
2022-09-15T00:22:50.752Z,188.02
2022-09-15T00:25:18.648Z,116.93
2022-09-15T00:27:46.254Z,187.35
2022-09-15T00:30:14.025Z,58.25
2022-09-15T00:32:41.649Z,144.15
2022-09-15T00:35:09.708Z,129.30
2022-09-15T00:37:38.647Z,297.00
2022-09-15T00:40:07.103Z,278.92
2022-09-15T00:42:34.788Z,149.35
2022-09-15T00:45:03.116Z,316.35
2022-09-15T00:47:32.503Z,312.75
2022-09-15T00:50:02.443Z,335.38
2022-09-15T00:52:35.871Z,330.73
2022-09-15T00:55:08.319Z,302.48
2022-09-15T00:57:38.399Z,336.13
2022-09-15T01:00:07.683Z,342.92
2022-09-15T01:02:36.450Z,297.17
2022-09-15T01:05:07.422Z,297.05
2022-09-15T01:07:36.868Z,341.23
2022-09-15T01:10:08.103Z,324.55
2022-09-15T01:12:35.969Z,162.35
2022-09-15T01:15:03.792Z,301.75
2022-09-15T01:17:36.289Z,280.35
2022-09-15T01:20:22.496Z,75.50
2022-09-15T01:22:56.274Z,45.45
2022-09-15T01:25:35.238Z,131.02
2022-09-15T01:28:24.267Z,67.68
2022-09-15T01:30:55.135Z,267.77
2022-09-15T01:33:28.728Z,207.13
2022-09-15T01:36:00.947Z,69.20
2022-09-15T01:38:39.632Z,107.20
2022-09-15T01:41:09.373Z,72.63
2022-09-15T01:43:40.545Z,65.47
2022-09-15T01:46:10.031Z,145.05
2022-09-15T01:48:38.374Z,111.45
2022-09-15T01:51:06.759Z,85.78
2022-09-15T01:53:34.804Z,66.80
2022-09-15T01:56:05.183Z,70.40
2022-09-15T01:58:33.193Z,68.30
2022-09-15T02:01:03.296Z,65.45
2022-09-15T02:03:35.188Z,74.28
2022-09-15T02:06:05.071Z,80.65
2022-09-15T02:08:36.916Z,68.95
2022-09-15T02:11:08.596Z,59.83
2022-09-15T02:13:40.540Z,62.90
2022-09-15T02:16:14.047Z,55.92
2022-09-15T02:18:45.302Z,82.63
2022-09-15T02:21:16.426Z,86.00
2022-09-15T02:23:47.575Z,93.10
2022-09-15T02:26:16.905Z,107.32
2022-09-15T02:28:45.601Z,99.40
2022-09-15T02:31:14.951Z,111.55
2022-09-15T02:33:46.169Z,109.32
2022-09-15T02:36:14.915Z,114.72
2022-09-15T02:38:46.765Z,135.15
2022-09-15T02:41:14.665Z,109.55
2022-09-15T02:43:45.986Z,143.02
2022-09-15T02:46:13.744Z,119.00
2022-09-15T02:48:41.384Z,67.70
2022-09-15T02:51:10.410Z,91.60
2022-09-15T02:53:38.187Z,87.57
2022-09-15T02:56:06.669Z,88.07
2022-09-15T02:58:34.691Z,81.03
2022-09-15T03:01:03.064Z,74.40
2022-09-15T03:03:30.724Z,80.78
2022-09-15T03:06:16.376Z,82.63
2022-09-15T03:08:48.328Z,86.13
2022-09-15T03:11:16.353Z,79.93
2022-09-15T03:13:44.201Z,73.90
2022-09-15T03:16:12.488Z,85.32
2022-09-15T03:18:40.601Z,79.05
2022-09-15T03:21:09.358Z,81.95
2022-09-15T03:23:37.092Z,73.40
2022-09-15T03:26:06.474Z,79.80
2022-09-15T03:28:34.083Z,70.13
2022-09-15T03:31:01.805Z,85.88
2022-09-15T03:33:29.814Z,83.95
2022-09-15T03:35:57.633Z,81.43
2022-09-15T03:38:25.857Z,71.22
2022-09-15T03:41:00.516Z,64.72
2022-09-15T03:43:29.788Z,69.72
2022-09-15T03:45:57.949Z,67.32
2022-09-15T03:48:26.152Z,81.38
2022-09-15T03:50:53.767Z,71.00
2022-09-15T03:53:21.738Z,81.10
2022-09-15T03:55:49.844Z,76.95
2022-09-15T03:58:17.884Z,81.47
2022-09-15T04:00:47.712Z,68.93
2022-09-15T04:03:15.557Z,65.45
2022-09-15T04:05:43.278Z,74.25
2022-09-15T04:08:14.146Z,74.53
2022-09-15T04:10:42.266Z,65.15
2022-09-15T04:13:09.877Z,78.65
2022-09-15T04:15:37.559Z,68.07
2022-09-15T04:18:06.646Z,72.57
2022-09-15T04:20:34.362Z,81.18
2022-09-15T04:23:01.970Z,69.25
2022-09-15T04:25:29.663Z,75.85
2022-09-15T04:27:57.491Z,65.20
2022-09-15T04:30:25.207Z,82.18
2022-09-15T04:32:53.968Z,77.00
2022-09-15T04:35:23.398Z,79.57
2022-09-15T04:37:51.628Z,71.22
2022-09-15T04:40:19.448Z,68.63
2022-09-15T04:42:48.055Z,71.03
2022-09-15T04:45:16.014Z,67.00
2022-09-15T04:47:43.744Z,80.40
2022-09-15T04:50:11.618Z,76.43
2022-09-15T04:52:40.624Z,74.65
2022-09-15T04:55:08.641Z,66.68
2022-09-15T04:57:36.235Z,73.10
2022-09-15T05:00:05.739Z,70.95
2022-09-15T05:02:33.731Z,63.78
2022-09-15T05:05:02.273Z,65.47
2022-09-15T05:07:29.979Z,69.10
2022-09-15T05:09:58.974Z,64.95
2022-09-15T05:12:26.618Z,69.82
2022-09-15T05:14:54.217Z,67.85
2022-09-15T05:17:26.147Z,74.80
2022-09-15T05:19:55.933Z,61.80
2022-09-15T05:22:23.551Z,59.83
2022-09-15T05:24:51.195Z,59.08
2022-09-15T05:27:20.216Z,71.07
2022-09-15T05:29:47.850Z,77.25
2022-09-15T05:32:15.613Z,66.93
2022-09-15T05:34:43.277Z,68.78
2022-09-15T05:37:11.293Z,56.35
2022-09-15T05:39:39.397Z,63.85
2022-09-15T05:42:07.726Z,68.20
2022-09-15T05:44:36.767Z,69.18
2022-09-15T05:47:04.646Z,60.05
2022-09-15T05:49:32.944Z,69.32
2022-09-15T05:52:00.644Z,90.25
2022-09-15T05:54:28.481Z,77.35
2022-09-15T05:56:56.143Z,55.78
2022-09-15T05:59:23.911Z,67.05
2022-09-15T06:01:52.976Z,64.53
2022-09-15T06:04:20.612Z,73.03
2022-09-15T06:06:48.282Z,70.47
2022-09-15T06:09:16.162Z,77.03
2022-09-15T06:11:43.795Z,74.65
2022-09-15T06:14:13.506Z,77.43
2022-09-15T06:16:41.154Z,67.93
2022-09-15T06:19:10.317Z,56.85
2022-09-15T06:21:38.067Z,58.70
2022-09-15T06:24:07.349Z,69.20
2022-09-15T06:26:35.433Z,68.63
2022-09-15T06:29:03.828Z,63.50
2022-09-15T06:31:32.954Z,63.38
2022-09-15T06:34:00.964Z,65.32
2022-09-15T06:36:30.673Z,58.35
2022-09-15T06:38:58.895Z,63.83
2022-09-15T06:41:32.953Z,59.42
2022-09-15T06:44:10.631Z,71.80
2022-09-15T06:46:40.696Z,65.97
2022-09-15T06:49:08.309Z,66.43
2022-09-15T06:51:37.297Z,60.75
2022-09-15T06:54:05.525Z,62.33
2022-09-15T06:56:37.222Z,65.90
2022-09-15T06:59:05.844Z,64.32
2022-09-15T07:01:33.676Z,58.40
2022-09-15T07:04:01.861Z,65.75
2022-09-15T07:06:29.674Z,62.28
2022-09-15T07:08:59.020Z,60.30
2022-09-15T07:11:26.768Z,62.90
2022-09-15T07:13:54.417Z,57.53
2022-09-15T07:16:22.850Z,65.38
2022-09-15T07:18:50.806Z,53.83
2022-09-15T07:21:19.931Z,56.08
2022-09-15T07:23:47.962Z,50.70
2022-09-15T07:26:17.948Z,49.17
2022-09-15T07:28:49.962Z,49.45
2022-09-15T07:31:18.938Z,43.72
2022-09-15T07:33:46.897Z,41.92
2022-09-15T07:36:14.694Z,47.30
2022-09-15T07:38:43.555Z,38.95
2022-09-15T07:41:11.946Z,34.67
2022-09-15T07:43:40.956Z,40.95
2022-09-15T07:46:08.795Z,38.88
2022-09-15T07:48:36.462Z,29.15
2022-09-15T07:51:04.199Z,26.70
2022-09-15T07:53:32.071Z,24.33
2022-09-15T07:55:59.765Z,28.88
2022-09-15T07:58:27.359Z,22.85
2022-09-15T08:01:02.020Z,24.77
2022-09-15T08:03:29.744Z,22.58
2022-09-15T08:05:58.820Z,24.23
2022-09-15T08:08:26.479Z,23.02
2022-09-15T08:10:54.405Z,24.40
2022-09-15T08:13:22.459Z,28.48
2022-09-15T08:15:51.008Z,25.75
2022-09-15T08:18:20.133Z,26.85
2022-09-15T08:20:47.764Z,27.92
2022-09-15T08:23:15.733Z,23.42
2022-09-15T08:25:43.627Z,19.45
2022-09-15T08:28:11.965Z,25.77
2022-09-15T08:30:39.631Z,19.20
2022-09-15T08:33:07.578Z,22.10
2022-09-15T08:35:37.444Z,16.90
2022-09-15T08:38:05.105Z,19.33
2022-09-15T08:40:35.931Z,16.67
2022-09-15T08:43:07.088Z,23.10
2022-09-15T08:45:38.838Z,18.02
2022-09-15T08:48:08.526Z,18.05
2022-09-15T08:50:40.907Z,21.42
2022-09-15T08:53:11.045Z,16.13
2022-09-15T08:55:39.755Z,13.27
2022-09-15T08:58:07.438Z,9.90
2022-09-15T09:00:35.168Z,13.15
2022-09-15T09:03:14.431Z,10.50
2022-09-15T09:05:50.952Z,10.32
2022-09-15T09:08:30.233Z,9.00
2022-09-15T09:11:00.815Z,9.32
2022-09-15T09:13:35.598Z,10.48
2022-09-15T09:16:17.009Z,6.75
2022-09-15T09:18:53.063Z,11.18
2022-09-15T09:21:24.816Z,7.18
2022-09-15T09:23:56.558Z,8.93
2022-09-15T09:26:24.254Z,7.60
2022-09-15T09:28:55.350Z,6.28
2022-09-15T09:31:24.790Z,5.82
2022-09-15T09:33:56.474Z,9.18
2022-09-15T09:36:25.789Z,6.35
2022-09-15T09:38:53.472Z,5.38
2022-09-15T09:41:26.120Z,8.20
2022-09-15T09:43:55.082Z,4.20
2022-09-15T09:46:23.229Z,10.85
2022-09-15T09:48:54.293Z,5.13
2022-09-15T09:51:43.066Z,3.88
2022-09-15T09:54:16.186Z,5.30
2022-09-15T09:56:44.327Z,6.03
2022-09-15T09:59:32.743Z,5.50
2022-09-15T10:02:15.953Z,2.78
2022-09-15T10:04:44.278Z,3.88
2022-09-15T10:07:12.420Z,3.88
2022-09-15T10:09:49.363Z,3.83
2022-09-15T10:12:20.448Z,2.08
2022-09-15T10:14:52.585Z,5.28
2022-09-15T10:17:20.938Z,3.50
2022-09-15T10:19:49.729Z,3.03
2022-09-15T10:22:28.990Z,2.90
2022-09-15T10:24:58.054Z,3.25
2022-09-15T10:27:30.185Z,4.28
2022-09-15T10:30:00.216Z,3.50
2022-09-15T10:32:28.958Z,4.85
2022-09-15T10:35:03.362Z,1.77
2022-09-15T10:37:33.016Z,3.85
2022-09-15T10:40:05.051Z,4.97
2022-09-15T10:42:44.063Z,2.08
2022-09-15T10:45:17.303Z,3.30
2022-09-15T10:47:49.982Z,5.85
2022-09-15T10:50:23.704Z,3.55
2022-09-15T10:53:01.607Z,3.25
2022-09-15T10:55:52.266Z,4.95
2022-09-15T10:58:35.036Z,3.17
2022-09-15T11:01:13.567Z,2.42
2022-09-15T11:03:49.372Z,3.03
2022-09-15T11:06:20.461Z,4.22
2022-09-15T11:09:01.991Z,3.97
2022-09-15T11:11:36.037Z,4.18
2022-09-15T11:14:12.467Z,4.55
2022-09-15T11:16:46.300Z,2.00
2022-09-15T11:19:34.375Z,5.00
2022-09-15T11:22:04.394Z,5.40
2022-09-15T11:24:39.374Z,3.88
2022-09-15T11:27:12.583Z,2.53
2022-09-15T11:29:51.292Z,4.13
2022-09-15T11:32:23.091Z,4.63
2022-09-15T11:34:54.461Z,4.53
2022-09-15T11:37:25.066Z,7.63
2022-09-15T11:39:57.649Z,1.40
2022-09-15T11:42:28.104Z,3.03
2022-09-15T11:44:56.387Z,4.07
2022-09-15T11:47:27.299Z,2.15
2022-09-15T11:49:57.141Z,7.65
2022-09-15T11:52:39.577Z,6.15
2022-09-15T11:55:13.978Z,1.70
2022-09-15T11:57:45.672Z,3.38
2022-09-15T12:00:14.839Z,2.97
2022-09-15T12:02:45.477Z,5.20
2022-09-15T12:05:15.710Z,5.32
2022-09-15T12:07:47.561Z,2.20
2022-09-15T12:10:16.499Z,3.35
2022-09-15T12:12:46.752Z,3.30
2022-09-15T12:15:15.972Z,1.70
2022-09-15T12:17:46.590Z,3.80
2022-09-15T12:20:18.295Z,3.03
2022-09-15T12:22:49.966Z,4.65
2022-09-15T12:25:21.105Z,2.70
2022-09-15T12:28:03.557Z,4.20
2022-09-15T12:30:42.762Z,1.30
2022-09-15T12:33:34.476Z,1.65
2022-09-15T12:36:16.957Z,5.75
2022-09-15T12:38:48.426Z,4.65
2022-09-15T12:41:16.223Z,4.50
2022-09-15T12:43:52.217Z,6.53
2022-09-15T12:46:21.441Z,4.18
2022-09-15T12:48:49.576Z,1.55
2022-09-15T12:51:22.849Z,2.17
2022-09-15T12:53:52.242Z,2.45
2022-09-15T12:56:24.767Z,2.67
2022-09-15T12:58:52.985Z,1.45
2022-09-15T13:01:37.573Z,3.28
2022-09-15T13:04:25.222Z,1.13
2022-09-15T13:07:19.940Z,2.45
2022-09-15T13:09:57.047Z,3.08
2022-09-15T13:12:26.142Z,1.17
2022-09-15T13:14:55.642Z,1.88
2022-09-15T13:17:26.477Z,1.75
2022-09-15T13:19:55.045Z,1.25
2022-09-15T13:22:27.531Z,2.47
2022-09-15T13:24:59.282Z,3.97
2022-09-15T13:27:30.472Z,2.13
2022-09-15T13:30:03.945Z,3.30
2022-09-15T13:32:39.197Z,3.63
2022-09-15T13:35:33.808Z,1.83
2022-09-15T13:38:23.789Z,2.20
2022-09-15T13:41:10.476Z,4.20
2022-09-15T13:43:46.252Z,2.10
2022-09-15T13:46:20.137Z,3.10
2022-09-15T13:48:57.307Z,3.92
2022-09-15T13:51:26.445Z,2.15
2022-09-15T13:53:55.709Z,2.50
2022-09-15T13:56:27.785Z,5.45
2022-09-15T13:59:10.022Z,3.25
2022-09-15T14:01:43.034Z,2.08
2022-09-15T14:04:13.664Z,4.72
2022-09-15T14:06:42.215Z,3.78
2022-09-15T14:09:11.033Z,2.80
2022-09-15T14:11:39.254Z,2.92
2022-09-15T14:14:10.594Z,2.50
2022-09-15T14:16:39.250Z,4.40
2022-09-15T14:19:25.503Z,3.58
2022-09-15T14:21:58.345Z,3.28
2022-09-15T14:24:27.457Z,2.35
2022-09-15T14:26:55.101Z,1.05
2022-09-15T14:29:24.499Z,0.88
2022-09-15T14:31:53.108Z,1.48
2022-09-15T14:34:23.207Z,3.85
2022-09-15T14:36:57.255Z,4.63
2022-09-15T14:39:25.076Z,5.13
2022-09-15T14:41:52.793Z,2.70
2022-09-15T14:47:12.843Z,6.05
2022-09-15T14:49:41.816Z,3.60
2022-09-15T14:52:18.895Z,3.03
2022-09-15T14:54:46.614Z,4.18
2022-09-15T14:57:14.726Z,11.05
2022-09-15T14:59:45.280Z,2.00
2022-09-15T15:02:22.083Z,3.38
2022-09-15T15:04:53.058Z,4.35
2022-09-15T15:07:22.752Z,2.28
2022-09-15T15:09:53.278Z,6.13
2022-09-15T15:12:25.421Z,4.28
2022-09-15T15:14:54.137Z,3.92
2022-09-15T15:17:29.369Z,5.60
2022-09-15T15:20:02.407Z,1.60
2022-09-15T15:22:30.045Z,3.35
2022-09-15T15:24:58.054Z,2.42
2022-09-15T15:27:40.521Z,1.15
2022-09-15T15:30:29.666Z,2.40
2022-09-15T15:32:58.274Z,1.88
2022-09-15T15:35:27.625Z,1.50
2022-09-15T15:38:06.341Z,2.65
2022-09-15T15:40:34.458Z,2.22
2022-09-15T15:43:03.728Z,7.18
2022-09-15T15:45:31.808Z,5.90
2022-09-15T15:47:59.528Z,4.80
2022-09-15T15:50:32.373Z,3.63
2022-09-15T15:53:00.880Z,7.63
2022-09-15T15:55:31.948Z,2.28
2022-09-15T15:57:59.634Z,6.43
2022-09-15T16:00:30.574Z,2.63
2022-09-15T16:02:58.319Z,4.38
2022-09-15T16:05:26.811Z,1.15
2022-09-15T16:07:56.829Z,2.75
2022-09-15T16:10:25.682Z,3.53
2022-09-15T16:12:53.311Z,2.45
2022-09-15T16:15:22.038Z,2.53
2022-09-15T16:17:50.058Z,2.10
2022-09-15T16:20:19.795Z,1.77
2022-09-15T16:22:47.843Z,2.67
2022-09-15T16:25:18.299Z,4.10
2022-09-15T16:27:45.943Z,3.92
2022-09-15T16:30:13.701Z,3.67
2022-09-15T16:32:41.595Z,1.83
2022-09-15T16:35:15.842Z,4.20
2022-09-15T16:37:43.483Z,2.83
2022-09-15T16:40:11.423Z,5.57
2022-09-15T16:42:40.447Z,2.83
2022-09-15T16:45:17.099Z,2.33
2022-09-15T16:47:44.743Z,1.98
2022-09-15T16:50:13.231Z,3.03
2022-09-15T16:52:40.860Z,4.03
2022-09-15T16:55:16.748Z,6.97
2022-09-15T16:57:45.835Z,1.98
2022-09-15T17:00:14.290Z,2.10
2022-09-15T17:02:41.985Z,2.33
2022-09-15T17:05:13.792Z,2.80
2022-09-15T17:07:41.443Z,1.20
2022-09-15T17:10:09.336Z,5.82
2022-09-15T17:12:37.389Z,4.10
2022-09-15T17:15:12.608Z,5.97
2022-09-15T17:20:08.113Z,5.35
2022-09-15T17:22:35.761Z,4.57
2022-09-15T17:25:03.394Z,3.35
2022-09-15T17:27:31.018Z,2.13
2022-09-15T17:29:59.172Z,1.55
2022-09-15T17:32:30.645Z,3.80
2022-09-15T17:35:01.881Z,5.57
2022-09-15T17:37:29.480Z,2.28
2022-09-15T17:39:59.074Z,2.42
2022-09-15T17:42:26.912Z,1.92
2022-09-15T17:44:54.734Z,2.70
2022-09-15T17:47:22.447Z,2.75
2022-09-15T17:49:51.490Z,5.13
2022-09-15T17:52:19.247Z,2.03
2022-09-15T17:54:46.875Z,5.95
2022-09-15T17:57:14.490Z,5.28
2022-09-15T17:59:42.348Z,5.55
2022-09-15T18:02:16.474Z,4.00
2022-09-15T18:04:44.188Z,2.70
2022-09-15T18:07:13.268Z,5.07
2022-09-15T18:09:41.022Z,2.85
2022-09-15T18:12:10.104Z,5.68
2022-09-15T18:14:37.998Z,4.13
2022-09-15T18:17:05.652Z,2.55
2022-09-15T18:19:33.425Z,3.72
2022-09-15T18:22:01.103Z,4.03
2022-09-15T18:24:30.144Z,6.05
2022-09-15T18:26:57.845Z,2.00
2022-09-15T18:29:26.074Z,2.53
2022-09-15T18:31:53.708Z,1.63
2022-09-15T18:34:21.294Z,3.47
2022-09-15T18:36:48.947Z,2.30
2022-09-15T18:39:16.583Z,2.13
2022-09-15T18:41:45.746Z,2.78
2022-09-15T18:44:13.698Z,3.40
2022-09-15T18:46:41.571Z,3.85
2022-09-15T18:49:09.528Z,2.40
2022-09-15T18:51:51.111Z,5.40
2022-09-15T18:54:19.942Z,3.75
2022-09-15T18:56:48.915Z,2.78
2022-09-15T18:59:17.753Z,2.80
2022-09-15T19:01:45.716Z,1.95
2022-09-15T19:04:13.370Z,4.28
2022-09-15T19:06:41.014Z,2.70
2022-09-15T19:09:08.638Z,4.25
2022-09-15T19:11:36.254Z,7.00
2022-09-15T19:14:05.233Z,5.70
2022-09-15T19:16:53.779Z,7.22
2022-09-15T19:19:21.348Z,5.03
2022-09-15T19:21:49.250Z,4.22
2022-09-15T19:24:17.339Z,3.17
2022-09-15T19:26:46.775Z,1.83
2022-09-15T19:29:15.829Z,5.72
2022-09-15T19:31:43.491Z,2.35
2022-09-15T19:34:11.337Z,6.53
2022-09-15T19:36:39.311Z,3.63
2022-09-15T19:39:07.087Z,3.15
2022-09-15T19:41:34.721Z,3.03
2022-09-15T19:44:03.324Z,2.40
2022-09-15T19:46:33.014Z,2.70
2022-09-15T19:49:02.655Z,3.50
2022-09-15T19:51:31.454Z,3.05
2022-09-15T19:53:59.517Z,3.22
2022-09-15T19:56:28.367Z,1.50
2022-09-15T19:58:56.853Z,2.20
2022-09-15T20:01:25.418Z,4.30
2022-09-15T20:03:55.979Z,3.75
2022-09-15T20:06:27.600Z,5.50
2022-09-15T20:08:59.381Z,3.03
2022-09-15T20:11:28.173Z,2.28
2022-09-15T20:13:56.278Z,1.73
2022-09-15T20:16:24.555Z,2.58
2022-09-15T20:18:53.141Z,2.83
2022-09-15T20:21:39.083Z,5.65
2022-09-15T20:24:11.249Z,4.75
2022-09-15T20:26:38.951Z,4.85
2022-09-15T20:29:06.567Z,5.63
2022-09-15T20:31:34.360Z,1.63
2022-09-15T20:34:02.666Z,2.55
2022-09-15T20:36:33.470Z,3.03
2022-09-15T20:39:01.954Z,4.10
2022-09-15T20:41:31.871Z,1.80
2022-09-15T20:43:59.507Z,11.82
2022-09-15T20:46:29.144Z,2.47
2022-09-15T20:48:56.893Z,5.43
2022-09-15T20:51:25.608Z,3.00
2022-09-15T20:53:55.511Z,6.18
2022-09-15T20:56:25.782Z,5.65
2022-09-15T20:58:53.911Z,3.63
2022-09-15T21:01:22.400Z,6.28
2022-09-15T21:03:50.100Z,2.97
2022-09-15T21:06:18.715Z,1.48
2022-09-15T21:08:47.456Z,4.57
2022-09-15T21:11:17.201Z,6.28
2022-09-15T21:13:45.023Z,3.50
2022-09-15T21:16:15.119Z,5.50
2022-09-15T21:18:43.606Z,3.97
2022-09-15T21:21:12.488Z,4.90
2022-09-15T21:23:41.572Z,3.65
2022-09-15T21:26:09.926Z,4.40
2022-09-15T21:28:39.003Z,2.30
2022-09-15T21:31:07.839Z,2.13
2022-09-15T21:33:35.697Z,2.10
2022-09-15T21:36:05.084Z,6.55
2022-09-15T21:38:32.744Z,2.55
2022-09-15T21:41:00.409Z,3.25
2022-09-15T21:43:30.344Z,3.25
2022-09-15T21:45:59.919Z,2.33
2022-09-15T21:48:28.935Z,4.13
2022-09-15T21:50:56.544Z,3.28
2022-09-15T21:53:24.394Z,5.28
2022-09-15T21:55:52.918Z,2.75
2022-09-15T21:58:21.328Z,8.27
2022-09-15T22:00:50.023Z,4.03
2022-09-15T22:03:19.319Z,4.55
2022-09-15T22:05:47.948Z,5.03
2022-09-15T22:08:16.669Z,5.80
2022-09-15T22:10:45.069Z,3.55
2022-09-15T22:13:12.847Z,3.60
2022-09-15T22:15:40.562Z,3.63
2022-09-15T22:18:08.424Z,2.78
2022-09-15T22:20:37.424Z,3.53
2022-09-15T22:23:05.332Z,3.08
2022-09-15T22:25:34.134Z,5.10
2022-09-15T22:28:01.753Z,1.35
2022-09-15T22:30:29.406Z,2.70
2022-09-15T22:32:57.223Z,4.03
2022-09-15T22:35:25.076Z,6.93
2022-09-15T22:37:54.039Z,3.33
2022-09-15T22:40:22.345Z,3.45
2022-09-15T22:42:50.035Z,2.17
2022-09-15T22:45:17.996Z,5.82
2022-09-15T22:47:45.612Z,5.28
2022-09-15T22:50:13.322Z,4.93
2022-09-15T22:52:41.085Z,2.00
2022-09-15T22:55:10.425Z,5.65
2022-09-15T22:57:39.618Z,2.33
2022-09-15T23:00:08.611Z,2.88
2022-09-15T23:02:36.229Z,6.50
2022-09-15T23:05:03.829Z,3.50
2022-09-15T23:07:31.612Z,4.10
2022-09-15T23:09:59.395Z,6.18
2022-09-15T23:12:30.744Z,4.10
2022-09-15T23:14:58.493Z,3.53
2022-09-15T23:17:27.443Z,2.67
2022-09-15T23:19:55.221Z,7.93
2022-09-15T23:22:22.842Z,5.47
2022-09-15T23:24:50.535Z,5.15
2022-09-15T23:27:18.181Z,4.38
2022-09-15T23:29:47.178Z,3.60
2022-09-15T23:32:14.829Z,3.30
2022-09-15T23:34:42.431Z,2.00
2022-09-15T23:37:10.082Z,3.47
2022-09-15T23:39:37.816Z,1.85
2022-09-15T23:42:05.518Z,3.22
2022-09-15T23:44:33.160Z,2.50
2022-09-15T23:47:02.250Z,9.00
2022-09-15T23:49:29.983Z,6.50
2022-09-15T23:51:57.690Z,3.58
2022-09-15T23:54:25.465Z,4.97
2022-09-15T23:56:53.118Z,9.13
2022-09-15T23:59:21.064Z,3.03
